»·PEaware :: UAL1399 KSUN-KSLC

UAL1399 :: KSUN-KSLC

FLIGHT INFORMATION

Flight Status: Arrived
Operator:
United Airlines
More flights by this operator :: More flights under this callsign
Pilot: David C. (16084)
Aircraft: AIRBUS A320
(A320)
More flights by this aircraft type
Origin: KSUN Friedman Meml
United States
Destination: KSLC Salt Lake City Intl
United States
More flights between these airports :: More routes between these airports
Route: AUREL3 REAPS V101 BYI SKEES5
File this flight plan on PilotEdge
Remarks:
Altitude:
(Current/Filed)
27,000ft
Speed:
(Current/Filed)
490kts
Departed: 30-Jun-18 10:03 AM
Arrived: 30-Jun-18 10:42 AM
Distance/Time
Traveled:
193nm/0:39
Distance/Time
To Go:
Arrived

Flight Plot

Page will automatically refresh every two minutes.

Flight plan parsing failed; only flown route is shown


Map Options




Map Legend


Flown Route
Filed Route
Departure Airport
Arrival Airport
Navaid (VOR, NDB)
Fix

Horizontal Profiles

Position Reports

Time Latitude Longitude Heading Altitude Ground
Speed
30-Jun-18 09:41 43.507030 -114.301429 160 5328ft 0kts
30-Jun-18 09:42 43.507030 -114.301429 160 5328ft 0kts
30-Jun-18 09:43 43.507030 -114.301429 160 5328ft 0kts
30-Jun-18 09:44 43.507030 -114.301429 160 5328ft 0kts
30-Jun-18 09:45 43.507030 -114.301429 160 5328ft 0kts
30-Jun-18 09:46 43.507030 -114.301429 160 5328ft 0kts
30-Jun-18 09:47 43.507030 -114.301429 160 5328ft 0kts
30-Jun-18 09:48 43.507030 -114.301429 160 5328ft 0kts
30-Jun-18 09:49 43.507030 -114.301429 160 5328ft 0kts
30-Jun-18 09:50 43.507030 -114.301429 160 5328ft 0kts
30-Jun-18 09:51 43.507030 -114.301429 160 5328ft 0kts
30-Jun-18 09:51 43.507030 -114.301429 160 5328ft 0kts
30-Jun-18 09:52 43.507048 -114.301438 160 5328ft 1kts
30-Jun-18 09:53 43.507382 -114.301888 78 5328ft 0kts
30-Jun-18 09:54 43.507382 -114.301887 78 5328ft 0kts
30-Jun-18 09:55 43.507382 -114.301887 78 5328ft 0kts
30-Jun-18 09:56 43.507382 -114.301887 78 5328ft 0kts
30-Jun-18 09:57 43.507382 -114.301887 78 5328ft 0kts
30-Jun-18 09:58 43.507819 -114.301231 11 5328ft 11kts
30-Jun-18 09:59 43.511289 -114.304301 338 5328ft 9kts
30-Jun-18 10:00 43.511354 -114.304325 349 5328ft 0kts
30-Jun-18 10:01 43.511354 -114.304325 349 5328ft 0kts
30-Jun-18 10:02 43.511713 -114.303302 140 5328ft 2kts
30-Jun-18 10:03 43.484624 -114.277036 145 6283ft 185kts
30-Jun-18 10:04 43.427657 -114.253365 166 8803ft 235kts
30-Jun-18 10:05 43.357843 -114.229135 166 11135ft 296kts
30-Jun-18 10:06 43.279863 -114.181793 152 14191ft 322kts
30-Jun-18 10:07 43.203177 -114.123368 152 16536ft 353kts
30-Jun-18 10:08 43.110738 -114.072352 167 18978ft 371kts
30-Jun-18 10:09 43.009140 -114.032537 167 21179ft 392kts
30-Jun-18 10:10 42.900576 -113.990163 165 22764ft 423kts
30-Jun-18 10:11 42.786389 -113.945683 165 24560ft 438kts
30-Jun-18 10:12 42.667243 -113.899491 165 26229ft 452kts
30-Jun-18 10:13 42.552282 -113.829504 133 27287ft 476kts
30-Jun-18 10:14 42.454620 -113.697545 133 27278ft 519kts
30-Jun-18 10:15 42.349844 -113.557659 133 27280ft 533kts
30-Jun-18 10:16 42.244464 -113.417732 133 27279ft 533kts
30-Jun-18 10:17 42.139473 -113.279084 134 27278ft 533kts
30-Jun-18 10:18 42.033809 -113.140232 134 27277ft 533kts
30-Jun-18 10:19 41.927632 -113.001391 134 27277ft 534kts
30-Jun-18 10:20 41.826335 -112.869566 134 27075ft 539kts
30-Jun-18 10:21 41.718491 -112.729888 134 24867ft 540kts
30-Jun-18 10:22 41.613755 -112.594831 134 22362ft 517kts
30-Jun-18 10:23 41.509953 -112.469250 144 19805ft 495kts
30-Jun-18 10:24 41.395171 -112.381681 151 17298ft 471kts
30-Jun-18 10:25 41.288274 -112.306050 152 14857ft 449kts
30-Jun-18 10:26 41.182893 -112.228804 150 12739ft 427kts
30-Jun-18 10:27 41.080794 -112.152420 158 12076ft 420kts
30-Jun-18 10:28 40.968806 -112.124081 172 11432ft 411kts
30-Jun-18 10:29 40.862742 -112.105028 176 11052ft 383kts
30-Jun-18 10:30 40.772746 -112.094293 176 11040ft 314kts
30-Jun-18 10:31 40.694251 -112.085048 177 11039ft 256kts
30-Jun-18 10:32 40.626237 -112.077339 177 10908ft 251kts
30-Jun-18 10:33 40.556450 -112.069701 177 9087ft 255kts
30-Jun-18 10:34 40.489533 -112.057037 141 8085ft 221kts
30-Jun-18 10:35 40.482051 -111.988631 43 7741ft 196kts
30-Jun-18 10:36 40.528832 -111.962200 357 7043ft 184kts
30-Jun-18 10:37 40.578643 -111.968150 351 7029ft 182kts
30-Jun-18 10:38 40.628513 -111.975191 352 7010ft 183kts
30-Jun-18 10:39 40.678525 -111.982119 352 6147ft 179kts
30-Jun-18 10:40 40.727363 -111.988885 352 5198ft 169kts
30-Jun-18 10:41 40.766344 -111.994293 353 4442ft 133kts
30-Jun-18 10:42 40.791011 -111.996466 37 4236ft 19kts
30-Jun-18 10:43 40.791361 -111.995949 55 4236ft 0kts
30-Jun-18 10:44 40.791817 -111.992326 84 4236ft 14kts
30-Jun-18 10:45 40.792282 -111.985479 85 4236ft 25kts
30-Jun-18 10:46 40.791747 -111.977502 145 4236ft 18kts
30-Jun-18 10:47 40.786389 -111.977357 252 4236ft 14kts
30-Jun-18 10:48 40.786746 -111.978270 312 4236ft 0kts

Navigation Log

Ident Type
Flight plan parsing failed, navigation log unavailable